createdAt,value
2023-02-11T00:01:31.604Z,58.40
2023-02-11T00:04:00.281Z,55.17
2023-02-11T00:06:30.839Z,54.58
2023-02-11T00:08:58.069Z,55.03
2023-02-11T00:11:30.681Z,51.55
2023-02-11T00:14:02.200Z,57.40
2023-02-11T00:16:29.886Z,51.72
2023-02-11T00:18:57.192Z,50.45
2023-02-11T00:21:26.469Z,59.88
2023-02-11T00:23:55.034Z,55.72
2023-02-11T00:26:26.537Z,56.58
2023-02-11T00:28:53.824Z,51.38
2023-02-11T00:31:23.500Z,51.92
2023-02-11T00:33:51.038Z,56.30
2023-02-11T00:36:26.176Z,55.17
2023-02-11T00:38:55.021Z,57.60
2023-02-11T00:41:23.170Z,54.95
2023-02-11T00:43:52.494Z,54.83
2023-02-11T00:46:20.193Z,55.90
2023-02-11T00:48:47.269Z,54.17
2023-02-11T00:51:14.355Z,56.20
2023-02-11T00:53:41.552Z,56.58
2023-02-11T00:56:08.914Z,54.00
2023-02-11T00:58:36.903Z,58.03
2023-02-11T01:01:04.945Z,56.80
2023-02-11T01:03:33.025Z,55.20
2023-02-11T01:06:00.449Z,56.40
2023-02-11T01:08:28.088Z,56.33
2023-02-11T01:11:05.274Z,54.78
2023-02-11T01:13:37.215Z,55.28
2023-02-11T01:16:07.888Z,55.03
2023-02-11T01:18:35.990Z,57.15
2023-02-11T01:21:03.459Z,59.88
2023-02-11T01:23:30.607Z,57.05
2023-02-11T01:25:57.609Z,59.83
2023-02-11T01:28:27.712Z,54.50
2023-02-11T01:30:55.135Z,56.30
2023-02-11T01:33:24.302Z,55.22
2023-02-11T01:35:52.526Z,58.33
2023-02-11T01:38:26.286Z,61.50
2023-02-11T01:41:03.796Z,57.65
2023-02-11T01:43:39.732Z,50.80
2023-02-11T01:46:25.272Z,62.53
2023-02-11T01:49:00.203Z,50.80
2023-02-11T01:51:44.433Z,57.47
2023-02-11T01:54:36.969Z,51.55
2023-02-11T01:57:25.274Z,58.25
2023-02-11T02:00:28.041Z,58.67
2023-02-11T02:03:20.323Z,61.53
2023-02-11T02:06:04.750Z,55.53
2023-02-11T02:08:42.699Z,54.95
2023-02-11T02:11:10.606Z,54.13
2023-02-11T02:13:37.901Z,55.53
2023-02-11T02:16:32.804Z,57.38
2023-02-11T02:19:44.489Z,58.17
2023-02-11T02:22:26.713Z,54.22
2023-02-11T02:25:30.603Z,61.15
2023-02-11T02:28:23.878Z,52.95
2023-02-11T02:31:12.338Z,56.15
2023-02-11T02:34:15.459Z,54.45
2023-02-11T02:36:55.878Z,50.30
2023-02-11T02:39:30.214Z,54.72
2023-02-11T02:41:57.761Z,51.33
2023-02-11T02:44:25.025Z,60.08
2023-02-11T02:46:52.391Z,62.33
2023-02-11T02:49:19.414Z,53.97
2023-02-11T02:52:25.051Z,56.45
2023-02-11T02:55:06.730Z,53.15
2023-02-11T02:57:54.137Z,47.38
2023-02-11T03:00:47.494Z,51.47
2023-02-11T03:03:44.214Z,51.13
2023-02-11T03:06:50.247Z,50.88
2023-02-11T03:09:29.579Z,53.28
2023-02-11T03:11:56.981Z,50.75
2023-02-11T03:14:27.169Z,53.10
2023-02-11T03:16:56.986Z,53.50
2023-02-11T03:19:40.384Z,47.53
2023-02-11T03:22:18.938Z,55.53
2023-02-11T03:24:46.773Z,53.15
2023-02-11T03:27:39.936Z,51.58
2023-02-11T03:30:25.136Z,53.90
2023-02-11T03:32:59.827Z,50.60
2023-02-11T03:35:39.902Z,49.95
2023-02-11T03:38:28.106Z,49.28
2023-02-11T03:40:56.891Z,56.55
2023-02-11T03:43:45.105Z,57.65
2023-02-11T03:46:16.348Z,51.80
2023-02-11T03:48:52.692Z,50.83
2023-02-11T03:51:22.370Z,60.28
2023-02-11T03:53:53.220Z,55.60
2023-02-11T03:56:25.584Z,55.28
2023-02-11T03:58:53.024Z,56.67
2023-02-11T04:01:20.835Z,57.03
2023-02-11T04:03:48.602Z,56.00
2023-02-11T04:06:16.131Z,59.40
2023-02-11T04:08:43.471Z,51.88
2023-02-11T04:11:16.327Z,52.85
2023-02-11T04:13:43.833Z,53.88
2023-02-11T04:16:14.491Z,50.13
2023-02-11T04:18:44.327Z,52.58
2023-02-11T04:24:34.062Z,56.92
2023-02-11T04:27:24.843Z,52.22
2023-02-11T04:30:26.644Z,49.13
2023-02-11T04:32:59.617Z,49.70
2023-02-11T04:35:26.746Z,54.97
2023-02-11T04:37:53.752Z,51.85
2023-02-11T04:40:20.775Z,57.72
2023-02-11T04:42:47.934Z,56.15
2023-02-11T04:49:21.372Z,54.65
2023-02-11T04:52:12.568Z,49.80
2023-02-11T04:55:22.579Z,57.20
2023-02-11T04:58:33.662Z,56.85
2023-02-11T05:05:41.548Z,47.97
2023-02-11T05:12:35.543Z,50.88
2023-02-11T05:16:13.277Z,54.67
2023-02-11T05:19:10.302Z,49.67
2023-02-11T05:22:04.341Z,43.88
2023-02-11T05:24:49.457Z,45.97
2023-02-11T05:31:07.636Z,49.92
2023-02-11T05:33:56.822Z,42.57
2023-02-11T05:39:36.852Z,43.90
2023-02-11T05:42:17.015Z,45.00
2023-02-11T05:45:16.168Z,45.60
2023-02-11T05:48:03.993Z,43.55
2023-02-11T05:50:36.539Z,44.63
2023-02-11T05:53:20.885Z,40.25
2023-02-11T05:56:06.932Z,42.10
2023-02-11T05:58:46.058Z,43.53
2023-02-11T06:01:23.127Z,40.92
2023-02-11T06:04:05.453Z,45.42
2023-02-11T06:06:54.896Z,47.78
2023-02-11T06:09:30.790Z,45.85
2023-02-11T06:12:23.424Z,43.03
2023-02-11T06:15:20.634Z,45.75
2023-02-11T06:18:07.275Z,42.60
2023-02-11T06:20:41.348Z,48.60
2023-02-11T06:23:22.991Z,48.50
2023-02-11T06:26:07.495Z,39.53
2023-02-11T06:28:42.077Z,44.70
2023-02-11T06:31:23.806Z,45.88
2023-02-11T06:34:07.985Z,43.67
2023-02-11T06:36:53.456Z,38.50
2023-02-11T06:39:32.864Z,43.03
2023-02-11T06:42:23.086Z,46.95
2023-02-11T06:45:07.749Z,44.55
2023-02-11T06:47:56.006Z,46.35
2023-02-11T06:50:33.316Z,43.65
2023-02-11T06:53:08.278Z,36.17
2023-02-11T06:55:51.970Z,41.83
2023-02-11T06:58:22.798Z,44.90
2023-02-11T07:00:56.617Z,46.20
2023-02-11T07:03:27.778Z,44.22
2023-02-11T07:06:06.721Z,42.65
2023-02-11T07:08:35.909Z,40.83
2023-02-11T07:11:11.465Z,45.95
2023-02-11T07:13:43.753Z,45.83
2023-02-11T07:16:17.405Z,42.80
2023-02-11T07:18:51.953Z,43.58
2023-02-11T07:21:24.450Z,44.42
2023-02-11T07:26:28.138Z,44.67
2023-02-11T07:28:55.726Z,46.08
2023-02-11T07:31:30.094Z,46.15
2023-02-11T07:34:04.760Z,42.42
2023-02-11T07:36:34.859Z,40.45
2023-02-11T07:39:08.759Z,46.83
2023-02-11T07:41:41.454Z,44.55
2023-02-11T07:44:09.382Z,45.50
2023-02-11T07:46:37.065Z,42.55
2023-02-11T07:49:16.314Z,41.10
2023-02-11T07:51:51.760Z,46.05
2023-02-11T07:54:19.330Z,46.55
2023-02-11T07:56:55.316Z,44.53
2023-02-11T07:59:47.021Z,48.92
2023-02-11T08:02:17.138Z,43.17
2023-02-11T08:04:56.023Z,46.72
2023-02-11T08:07:56.731Z,49.13
2023-02-11T08:10:33.725Z,47.22
2023-02-11T08:13:07.582Z,50.50
2023-02-11T08:15:37.076Z,45.20
2023-02-11T08:18:08.746Z,47.00
2023-02-11T08:20:36.058Z,41.75
2023-02-11T08:23:07.436Z,41.90
2023-02-11T08:25:34.994Z,49.72
2023-02-11T08:28:02.218Z,46.65
2023-02-11T08:30:29.334Z,47.85
2023-02-11T08:32:56.705Z,51.03
2023-02-11T08:35:24.056Z,50.05
2023-02-11T08:37:51.267Z,106.47
2023-02-11T08:40:19.619Z,55.33
2023-02-11T08:42:47.440Z,47.53
2023-02-11T08:45:14.755Z,48.70
2023-02-11T08:47:42.143Z,48.60
2023-02-11T08:50:09.498Z,49.80
2023-02-11T08:52:37.342Z,49.70
2023-02-11T08:55:04.879Z,49.03
2023-02-11T08:57:32.718Z,50.55
2023-02-11T08:59:59.926Z,48.80
2023-02-11T09:02:27.351Z,46.33
2023-02-11T09:04:54.820Z,48.88
2023-02-11T09:07:22.103Z,56.78
2023-02-11T09:09:49.114Z,43.72
2023-02-11T09:12:16.216Z,46.40
2023-02-11T09:14:44.243Z,45.92
2023-02-11T09:17:11.539Z,43.72
2023-02-11T09:19:38.772Z,43.95
2023-02-11T09:22:05.900Z,47.30
2023-02-11T09:24:33.066Z,44.97
2023-02-11T09:27:00.303Z,51.10
2023-02-11T09:29:27.318Z,47.20
2023-02-11T09:31:54.520Z,44.65
2023-02-11T09:34:21.733Z,42.80
2023-02-11T09:36:51.149Z,44.80
2023-02-11T09:39:20.589Z,37.35
2023-02-11T09:42:18.428Z,44.70
2023-02-11T09:44:47.056Z,43.88
2023-02-11T09:47:22.848Z,41.45
2023-02-11T09:50:16.550Z,45.60
2023-02-11T09:53:12.407Z,43.08
2023-02-11T09:55:43.549Z,42.53
2023-02-11T09:58:17.855Z,40.33
2023-02-11T10:04:02.494Z,41.47
2023-02-11T10:06:53.630Z,43.15
2023-02-11T10:09:39.369Z,42.80
2023-02-11T10:12:46.324Z,42.95
2023-02-11T10:16:00.393Z,38.92
2023-02-11T10:19:05.480Z,33.60
2023-02-11T10:22:04.593Z,40.30
2023-02-11T10:24:31.944Z,49.85
2023-02-11T10:26:59.373Z,36.33
2023-02-11T10:29:40.884Z,33.72
2023-02-11T10:32:27.366Z,33.35
2023-02-11T10:35:01.180Z,32.00
2023-02-11T10:37:28.980Z,40.00
2023-02-11T10:39:56.563Z,34.28
2023-02-11T10:42:23.864Z,32.72
2023-02-11T10:45:02.061Z,34.88
2023-02-11T10:47:37.630Z,34.28
2023-02-11T10:50:24.623Z,30.70
2023-02-11T10:52:51.719Z,32.80
2023-02-11T10:55:22.201Z,37.75
2023-02-11T10:57:54.061Z,33.33
2023-02-11T11:00:57.445Z,35.67
2023-02-11T11:03:40.029Z,35.08
2023-02-11T11:06:10.112Z,35.65
2023-02-11T11:08:51.694Z,29.95
2023-02-11T11:11:24.924Z,33.30
2023-02-11T11:13:52.686Z,43.30
2023-02-11T11:16:32.415Z,37.00
2023-02-11T11:19:08.711Z,31.75
2023-02-11T11:21:49.968Z,33.90
2023-02-11T11:24:29.527Z,34.85
2023-02-11T11:27:03.118Z,36.20
2023-02-11T11:29:44.143Z,32.85
2023-02-11T11:32:32.429Z,32.78
2023-02-11T11:35:17.845Z,34.95
2023-02-11T11:37:45.879Z,34.33
2023-02-11T11:40:16.097Z,30.80
2023-02-11T11:42:44.119Z,27.95
2023-02-11T11:45:19.916Z,31.40
2023-02-11T11:48:01.863Z,30.55
2023-02-11T11:50:44.601Z,23.98
2023-02-11T11:54:03.823Z,30.88
2023-02-11T11:56:39.437Z,28.45
2023-02-11T11:59:16.657Z,30.95
2023-02-11T12:02:18.452Z,32.03
2023-02-11T12:04:59.450Z,30.65
2023-02-11T12:07:45.620Z,35.83
2023-02-11T12:10:32.177Z,103.07
2023-02-11T12:13:26.475Z,29.98
2023-02-11T12:16:31.790Z,31.67
2023-02-11T12:22:29.250Z,27.98
2023-02-11T12:25:26.654Z,30.75
2023-02-11T12:28:14.143Z,30.48
2023-02-11T12:30:57.383Z,30.70
2023-02-11T12:34:04.316Z,30.92
2023-02-11T12:36:46.617Z,32.15
2023-02-11T12:39:45.543Z,32.03
2023-02-11T12:43:18.740Z,30.58
2023-02-11T12:46:26.065Z,29.25
2023-02-11T12:49:20.280Z,33.65
2023-02-11T12:52:12.143Z,31.65
2023-02-11T12:55:00.834Z,36.97
2023-02-11T12:57:32.517Z,35.90
2023-02-11T13:00:05.433Z,36.63
2023-02-11T13:03:09.554Z,30.95
2023-02-11T13:05:52.231Z,32.55
2023-02-11T13:08:39.982Z,34.80
2023-02-11T13:11:18.998Z,31.90
2023-02-11T13:13:46.307Z,35.72
2023-02-11T13:16:39.672Z,36.33
2023-02-11T13:19:28.912Z,32.50
2023-02-11T13:22:32.448Z,36.28
2023-02-11T13:25:36.250Z,34.65
2023-02-11T13:28:36.356Z,35.55
2023-02-11T13:31:07.164Z,32.03
2023-02-11T13:33:43.936Z,35.40
2023-02-11T13:36:14.971Z,32.80
2023-02-11T13:39:01.441Z,34.80
2023-02-11T13:41:41.124Z,38.70
2023-02-11T13:44:11.143Z,38.60
2023-02-11T13:47:07.845Z,38.25
2023-02-11T13:49:43.153Z,42.45
2023-02-11T13:52:38.308Z,62.67
2023-02-11T13:55:22.328Z,35.50
2023-02-11T13:58:27.724Z,37.63
2023-02-11T14:00:55.562Z,37.90
2023-02-11T14:03:48.057Z,37.60
2023-02-11T14:06:46.660Z,32.25
2023-02-11T14:09:13.601Z,41.95
2023-02-11T14:11:43.350Z,41.00
2023-02-11T14:14:16.081Z,32.35
2023-02-11T14:17:07.352Z,35.80
2023-02-11T14:19:39.668Z,38.60
2023-02-11T14:22:16.731Z,37.88
2023-02-11T14:24:51.592Z,35.88
2023-02-11T14:27:57.286Z,33.35
2023-02-11T14:30:34.461Z,31.10
2023-02-11T14:33:52.772Z,30.10
2023-02-11T14:36:53.772Z,35.47
2023-02-11T14:39:46.571Z,34.38
2023-02-11T14:42:20.004Z,34.40
2023-02-11T14:44:50.371Z,30.42
2023-02-11T14:47:21.666Z,31.80
2023-02-11T14:49:49.782Z,33.53
2023-02-11T14:52:28.241Z,35.58
2023-02-11T14:55:39.838Z,30.83
2023-02-11T14:58:31.551Z,35.78
2023-02-11T15:01:28.964Z,34.17
2023-02-11T15:03:57.031Z,34.58
2023-02-11T15:06:28.222Z,36.40
2023-02-11T15:09:01.209Z,33.83
2023-02-11T15:11:35.190Z,34.28
2023-02-11T15:14:11.578Z,34.70
2023-02-11T15:16:44.913Z,36.55
2023-02-11T15:19:25.880Z,34.13
2023-02-11T15:21:54.247Z,30.08
2023-02-11T15:24:28.706Z,30.42
2023-02-11T15:29:36.404Z,33.55
2023-02-11T15:32:15.651Z,32.88
2023-02-11T15:34:45.167Z,33.25
2023-02-11T15:37:27.739Z,36.30
2023-02-11T15:39:56.418Z,30.48
2023-02-11T15:42:40.847Z,34.10
2023-02-11T15:45:14.336Z,30.45
2023-02-11T15:47:50.124Z,35.42
2023-02-11T15:50:26.737Z,36.60
2023-02-11T15:52:56.813Z,35.08
2023-02-11T15:55:25.602Z,34.70
2023-02-11T15:58:01.401Z,32.63
2023-02-11T16:00:37.565Z,40.10
2023-02-11T16:03:05.262Z,33.60
2023-02-11T16:05:37.947Z,32.67
2023-02-11T16:08:35.554Z,33.58
2023-02-11T16:11:09.120Z,34.83
2023-02-11T16:13:47.562Z,38.45
2023-02-11T16:16:26.209Z,35.10
2023-02-11T16:19:06.277Z,36.47
2023-02-11T16:21:39.463Z,33.28
2023-02-11T16:24:25.011Z,31.80
2023-02-11T16:26:58.673Z,36.40
2023-02-11T16:29:29.427Z,35.17
2023-02-11T16:32:18.075Z,32.60
2023-02-11T16:34:46.652Z,36.83
2023-02-11T16:37:13.787Z,32.25
2023-02-11T16:39:41.052Z,35.20
2023-02-11T16:42:08.570Z,38.83
2023-02-11T16:44:36.014Z,37.92
2023-02-11T16:47:06.103Z,37.65
2023-02-11T16:49:38.289Z,37.08
2023-02-11T16:52:13.962Z,36.35
2023-02-11T16:54:41.039Z,41.60
2023-02-11T16:57:18.459Z,40.00
2023-02-11T16:59:46.773Z,42.47
2023-02-11T17:02:26.443Z,41.53
2023-02-11T17:04:56.012Z,36.05
2023-02-11T17:07:23.305Z,39.50
2023-02-11T17:09:52.229Z,44.22
2023-02-11T17:12:20.835Z,67.75
2023-02-11T17:14:48.200Z,47.35
2023-02-11T17:17:16.323Z,43.30
2023-02-11T17:19:47.958Z,45.25
2023-02-11T17:22:15.009Z,43.42
2023-02-11T17:24:42.052Z,41.63
2023-02-11T17:27:11.806Z,40.03
2023-02-11T17:29:39.007Z,40.17
2023-02-11T17:32:06.330Z,42.97
2023-02-11T17:34:33.576Z,39.08
2023-02-11T17:37:03.109Z,36.75
2023-02-11T17:39:30.082Z,37.97
2023-02-11T17:41:57.106Z,38.17
2023-02-11T17:44:24.093Z,43.58
2023-02-11T17:46:51.127Z,40.78
2023-02-11T17:49:18.149Z,42.35
2023-02-11T17:51:45.512Z,49.13
2023-02-11T17:54:19.426Z,46.70
2023-02-11T17:56:50.542Z,45.08
2023-02-11T17:59:18.304Z,45.42
2023-02-11T18:01:45.853Z,41.90
2023-02-11T18:04:16.935Z,43.25
2023-02-11T18:06:44.759Z,40.80
2023-02-11T18:09:12.115Z,40.90
2023-02-11T18:11:40.274Z,40.97
2023-02-11T18:14:08.509Z,47.10
2023-02-11T18:16:38.979Z,46.30
2023-02-11T18:19:07.843Z,42.10
2023-02-11T18:21:35.452Z,43.78
2023-02-11T18:24:06.690Z,44.95
2023-02-11T18:26:35.128Z,41.45
2023-02-11T18:29:03.894Z,46.83
2023-02-11T18:31:31.486Z,45.28
2023-02-11T18:33:58.797Z,48.50
2023-02-11T18:36:25.877Z,48.08
2023-02-11T18:38:54.232Z,49.72
2023-02-11T18:41:21.612Z,44.60
2023-02-11T18:43:48.946Z,48.35
2023-02-11T18:46:16.797Z,47.53
2023-02-11T18:48:45.108Z,55.28
2023-02-11T18:51:20.752Z,50.70
2023-02-11T18:53:47.848Z,49.97
2023-02-11T18:56:20.388Z,48.50
2023-02-11T18:58:48.599Z,46.28
2023-02-11T19:01:23.010Z,48.25
2023-02-11T19:03:51.142Z,47.30
2023-02-11T19:06:26.877Z,53.42
2023-02-11T19:08:59.000Z,50.60
2023-02-11T19:11:46.538Z,52.08
2023-02-11T19:14:21.386Z,51.03
2023-02-11T19:16:51.409Z,45.45
2023-02-11T19:19:20.103Z,48.25
2023-02-11T19:21:47.585Z,50.08
2023-02-11T19:24:19.014Z,49.63
2023-02-11T19:26:48.408Z,54.95
2023-02-11T19:29:16.514Z,58.83
2023-02-11T19:31:44.291Z,51.38
2023-02-11T19:34:14.229Z,52.53
2023-02-11T19:36:41.942Z,66.00
2023-02-11T19:39:19.201Z,49.60
2023-02-11T19:41:46.525Z,54.15
2023-02-11T19:44:14.874Z,54.95
2023-02-11T19:46:42.272Z,54.67
2023-02-11T19:49:13.857Z,51.80
2023-02-11T19:51:41.031Z,59.35
2023-02-11T19:54:08.352Z,56.33
2023-02-11T19:56:37.891Z,51.03
2023-02-11T19:59:08.856Z,58.88
2023-02-11T20:01:38.998Z,65.07
2023-02-11T20:04:08.313Z,59.33
2023-02-11T20:06:35.698Z,57.55
2023-02-11T20:09:07.737Z,62.58
2023-02-11T20:11:37.002Z,53.55
2023-02-11T20:14:05.165Z,64.97
2023-02-11T20:16:47.569Z,57.72
2023-02-11T20:19:21.570Z,58.13
2023-02-11T20:21:53.131Z,57.78
2023-02-11T20:24:20.986Z,61.25
2023-02-11T20:26:49.305Z,59.35
2023-02-11T20:29:18.220Z,62.25
2023-02-11T20:31:45.891Z,59.25
2023-02-11T20:34:13.537Z,61.40
2023-02-11T20:36:40.910Z,70.18
2023-02-11T20:39:08.743Z,68.43
2023-02-11T20:41:40.704Z,62.35
2023-02-11T20:44:10.715Z,67.78
2023-02-11T20:46:41.460Z,65.88
2023-02-11T20:49:13.468Z,64.13
2023-02-11T20:51:41.172Z,56.97
2023-02-11T20:54:14.203Z,62.22
2023-02-11T20:56:41.647Z,60.50
2023-02-11T20:59:09.306Z,59.45
2023-02-11T21:01:44.175Z,62.78
2023-02-11T21:04:18.282Z,54.75
2023-02-11T21:09:19.947Z,62.65
2023-02-11T21:11:48.295Z,55.60
2023-02-11T21:14:15.478Z,59.13
2023-02-11T21:16:42.624Z,55.10
2023-02-11T21:19:10.345Z,52.75
2023-02-11T21:21:39.242Z,66.93
2023-02-11T21:24:07.793Z,53.67
2023-02-11T21:26:35.748Z,56.85
2023-02-11T21:29:05.234Z,61.78
2023-02-11T21:31:34.500Z,53.67
2023-02-11T21:34:02.107Z,59.42
2023-02-11T21:36:30.515Z,57.08
2023-02-11T21:38:58.359Z,51.42
2023-02-11T21:41:26.988Z,54.50
2023-02-11T21:43:54.115Z,58.28
2023-02-11T21:46:22.473Z,49.97
2023-02-11T21:48:49.837Z,58.95
2023-02-11T21:51:23.618Z,57.92
2023-02-11T21:53:59.756Z,55.33
2023-02-11T21:56:28.392Z,51.55
2023-02-11T21:58:58.750Z,55.70
2023-02-11T22:01:33.135Z,57.03
2023-02-11T22:04:00.400Z,51.47
2023-02-11T22:06:31.198Z,52.92
2023-02-11T22:09:02.451Z,51.97
2023-02-11T22:11:29.568Z,56.08
2023-02-11T22:13:57.909Z,58.35
2023-02-11T22:16:26.619Z,53.75
2023-02-11T22:18:54.111Z,49.90
2023-02-11T22:21:23.040Z,51.80
2023-02-11T22:23:51.607Z,48.65
2023-02-11T22:26:22.517Z,56.90
2023-02-11T22:28:51.677Z,60.50
2023-02-11T22:31:26.599Z,55.67
2023-02-11T22:33:54.204Z,56.97
2023-02-11T22:36:25.334Z,57.33
2023-02-11T22:38:53.446Z,55.75
2023-02-11T22:41:21.458Z,57.25
2023-02-11T22:43:48.953Z,58.22
2023-02-11T22:46:18.957Z,67.47
2023-02-11T22:48:47.149Z,57.80
2023-02-11T22:51:21.159Z,61.80
2023-02-11T22:56:34.747Z,54.28
2023-02-11T22:59:05.864Z,55.67
2023-02-11T23:01:33.946Z,53.10
2023-02-11T23:04:04.707Z,51.47
2023-02-11T23:06:32.356Z,57.17
2023-02-11T23:08:59.596Z,62.13
2023-02-11T23:11:30.580Z,61.28
2023-02-11T23:13:58.558Z,64.93
2023-02-11T23:16:31.268Z,67.82
2023-02-11T23:19:07.906Z,60.78
2023-02-11T23:21:38.344Z,51.67
2023-02-11T23:24:14.732Z,53.75
2023-02-11T23:26:43.716Z,56.63
2023-02-11T23:29:11.166Z,59.15
2023-02-11T23:31:43.464Z,54.35
2023-02-11T23:34:11.330Z,51.40
2023-02-11T23:36:38.625Z,56.42
2023-02-11T23:39:06.167Z,58.70
2023-02-11T23:41:33.278Z,62.25
2023-02-11T23:44:00.465Z,65.53
2023-02-11T23:46:28.113Z,71.28
2023-02-11T23:48:55.424Z,70.75
2023-02-11T23:51:23.801Z,66.05
2023-02-11T23:53:52.642Z,65.03
2023-02-11T23:56:23.932Z,59.20
2023-02-11T23:58:54.396Z,61.83
